Baldwin Hills, California
Current Conditions -  °F | °C
As of 11:53 PM on Saturday 22 Nov 2014 (Local Time) from KLAX Reporting Station
Scattered Clouds Scattered Clouds  
Wind Chill: 60°   Ceiling: Unl
Heat Index: 60°   Visibility: 10mi
Dew Point: 56°   Wind: 3mph
Humidity: 86%   Direction: NA
Pressure: 30.04"   Gusts: NA
Location:  33.9931°N, 118.373°W
Report Text: KLAX 230753Z VRB03KT 10SM FEW015 SCT200 16/13 A3004 RMK AO2 SLP169 T01560133 402110117
Loading
Personal Weather Stations






























Interactive Weather Map New forecast layout! Learn more

10-Day Weather Forecast

Advertisements
Track Severe Weather on mobile